sensor_id;sensor_type;location;lat;lon;timestamp;noise_LAeq;noise_LA_min;noise_LA_max;noise_LA01;noise_LA95
17594;Laerm;8916;47.086;15.920;2023-02-01T00:01:44;49.50;48.45;50.61;;
17594;Laerm;8916;47.086;15.920;2023-02-01T00:04:13;49.50;48.16;50.67;;
17594;Laerm;8916;47.086;15.920;2023-02-01T00:06:42;49.51;48.32;50.51;;
17594;Laerm;8916;47.086;15.920;2023-02-01T00:09:12;49.50;48.46;50.61;;
17594;Laerm;8916;47.086;15.920;2023-02-01T00:11:41;49.51;48.54;50.57;;
17594;Laerm;8916;47.086;15.920;2023-02-01T00:14:10;49.50;48.16;50.66;;
17594;Laerm;8916;47.086;15.920;2023-02-01T00:16:41;49.50;48.43;50.59;;
17594;Laerm;8916;47.086;15.920;2023-02-01T00:19:12;49.51;48.12;50.92;;
17594;Laerm;8916;47.086;15.920;2023-02-01T00:21:41;49.50;48.28;50.58;;
17594;Laerm;8916;47.086;15.920;2023-02-01T00:24:12;49.50;48.39;50.63;;
17594;Laerm;8916;47.086;15.920;2023-02-01T00:26:43;49.50;48.26;50.57;;
17594;Laerm;8916;47.086;15.920;2023-02-01T00:29:15;49.49;48.36;50.52;;
17594;Laerm;8916;47.086;15.920;2023-02-01T00:31:46;49.49;48.46;50.92;;
17594;Laerm;8916;47.086;15.920;2023-02-01T00:34:16;49.50;48.46;50.63;;
17594;Laerm;8916;47.086;15.920;2023-02-01T00:36:46;49.50;48.42;50.58;;
17594;Laerm;8916;47.086;15.920;2023-02-01T00:39:15;49.49;48.34;50.55;;
17594;Laerm;8916;47.086;15.920;2023-02-01T00:41:45;49.49;48.42;50.56;;
17594;Laerm;8916;47.086;15.920;2023-02-01T00:44:14;49.49;48.29;50.95;;
17594;Laerm;8916;47.086;15.920;2023-02-01T00:46:45;49.48;48.38;50.62;;
17594;Laerm;8916;47.086;15.920;2023-02-01T00:49:15;49.48;48.37;50.56;;
17594;Laerm;8916;47.086;15.920;2023-02-01T00:51:44;49.48;48.39;50.69;;
17594;Laerm;8916;47.086;15.920;2023-02-01T00:54:16;49.49;48.37;50.48;;
17594;Laerm;8916;47.086;15.920;2023-02-01T00:56:45;49.49;48.39;50.73;;
17594;Laerm;8916;47.086;15.920;2023-02-01T00:59:14;49.49;48.39;50.70;;
17594;Laerm;8916;47.086;15.920;2023-02-01T01:01:43;49.49;48.36;50.48;;
17594;Laerm;8916;47.086;15.920;2023-02-01T01:04:14;49.48;48.42;50.42;;
17594;Laerm;8916;47.086;15.920;2023-02-01T01:06:43;49.49;48.31;50.65;;
17594;Laerm;8916;47.086;15.920;2023-02-01T01:09:12;49.49;48.42;50.71;;
17594;Laerm;8916;47.086;15.920;2023-02-01T01:11:41;49.50;48.40;50.54;;
17594;Laerm;8916;47.086;15.920;2023-02-01T01:14:10;49.49;48.23;50.53;;
17594;Laerm;8916;47.086;15.920;2023-02-01T01:16:40;49.50;48.43;50.48;;
17594;Laerm;8916;47.086;15.920;2023-02-01T01:19:09;49.50;48.49;50.62;;
17594;Laerm;8916;47.086;15.920;2023-02-01T01:21:39;49.50;48.20;50.64;;
17594;Laerm;8916;47.086;15.920;2023-02-01T01:24:08;49.49;48.28;50.67;;
17594;Laerm;8916;47.086;15.920;2023-02-01T01:26:37;49.51;48.42;50.60;;
17594;Laerm;8916;47.086;15.920;2023-02-01T01:29:09;49.51;48.29;50.53;;
17594;Laerm;8916;47.086;15.920;2023-02-01T01:31:38;49.51;48.29;50.64;;
17594;Laerm;8916;47.086;15.920;2023-02-01T01:34:08;49.51;48.42;50.93;;
17594;Laerm;8916;47.086;15.920;2023-02-01T01:36:39;49.52;48.51;50.57;;
17594;Laerm;8916;47.086;15.920;2023-02-01T01:39:08;49.52;48.34;50.62;;
17594;Laerm;8916;47.086;15.920;2023-02-01T01:41:37;49.52;48.43;50.62;;
17594;Laerm;8916;47.086;15.920;2023-02-01T01:44:56;49.53;48.42;50.56;;
17594;Laerm;8916;47.086;15.920;2023-02-01T01:47:31;49.53;48.43;50.56;;
17594;Laerm;8916;47.086;15.920;2023-02-01T01:50:02;49.53;48.42;50.63;;
17594;Laerm;8916;47.086;15.920;2023-02-01T01:52:35;49.52;48.40;50.65;;
17594;Laerm;8916;47.086;15.920;2023-02-01T01:55:06;49.54;48.39;50.70;;
17594;Laerm;8916;47.086;15.920;2023-02-01T01:57:39;49.53;48.46;50.51;;
17594;Laerm;8916;47.086;15.920;2023-02-01T02:00:13;49.54;48.49;50.62;;
17594;Laerm;8916;47.086;15.920;2023-02-01T02:02:48;49.53;48.36;50.76;;
17594;Laerm;8916;47.086;15.920;2023-02-01T02:05:20;49.53;48.36;50.65;;
17594;Laerm;8916;47.086;15.920;2023-02-01T02:07:58;49.54;48.46;50.54;;
17594;Laerm;8916;47.086;15.920;2023-02-01T02:10:28;49.54;48.48;50.61;;
17594;Laerm;8916;47.086;15.920;2023-02-01T02:13:12;49.54;48.51;50.64;;
17594;Laerm;8916;47.086;15.920;2023-02-01T02:15:48;49.55;48.49;50.73;;
17594;Laerm;8916;47.086;15.920;2023-02-01T02:18:30;49.54;48.52;50.85;;
17594;Laerm;8916;47.086;15.920;2023-02-01T02:21:12;49.55;48.54;50.61;;
17594;Laerm;8916;47.086;15.920;2023-02-01T02:24:27;49.55;48.15;50.77;;
17594;Laerm;8916;47.086;15.920;2023-02-01T02:27:21;49.54;48.52;50.65;;
17594;Laerm;8916;47.086;15.920;2023-02-01T02:33:40;49.55;48.32;50.64;;
17594;Laerm;8916;47.086;15.920;2023-02-01T02:36:17;49.55;48.42;50.85;;
17594;Laerm;8916;47.086;15.920;2023-02-01T02:38:55;49.55;48.20;50.63;;
17594;Laerm;8916;47.086;15.920;2023-02-01T02:41:33;49.54;48.56;50.72;;
17594;Laerm;8916;47.086;15.920;2023-02-01T02:44:39;49.54;48.51;50.69;;
17594;Laerm;8916;47.086;15.920;2023-02-01T02:47:36;49.55;48.51;50.80;;
17594;Laerm;8916;47.086;15.920;2023-02-01T02:50:23;49.53;48.37;50.61;;
17594;Laerm;8916;47.086;15.920;2023-02-01T02:53:16;49.54;48.39;50.68;;
17594;Laerm;8916;47.086;15.920;2023-02-01T02:56:06;49.54;48.51;50.58;;
17594;Laerm;8916;47.086;15.920;2023-02-01T02:58:56;49.53;48.40;50.62;;
17594;Laerm;8916;47.086;15.920;2023-02-01T03:01:49;49.54;48.46;50.52;;
17594;Laerm;8916;47.086;15.920;2023-02-01T03:04:35;49.53;48.32;50.75;;
17594;Laerm;8916;47.086;15.920;2023-02-01T03:07:42;49.54;48.34;50.76;;
17594;Laerm;8916;47.086;15.920;2023-02-01T03:10:09;49.55;48.40;50.60;;
17594;Laerm;8916;47.086;15.920;2023-02-01T03:12:42;49.55;48.36;50.56;;
17594;Laerm;8916;47.086;15.920;2023-02-01T03:15:34;49.54;48.49;50.55;;
17594;Laerm;8916;47.086;15.920;2023-02-01T03:18:10;49.55;48.51;50.98;;
17594;Laerm;8916;47.086;15.920;2023-02-01T03:20:46;49.56;48.43;50.69;;
17594;Laerm;8916;47.086;15.920;2023-02-01T03:23:19;49.56;48.55;50.54;;
17594;Laerm;8916;47.086;15.920;2023-02-01T03:25:53;49.55;48.43;50.69;;
17594;Laerm;8916;47.086;15.920;2023-02-01T03:28:24;49.56;48.51;50.85;;
17594;Laerm;8916;47.086;15.920;2023-02-01T03:30:55;49.55;48.51;50.77;;
17594;Laerm;8916;47.086;15.920;2023-02-01T03:33:26;49.55;48.40;50.60;;
17594;Laerm;8916;47.086;15.920;2023-02-01T03:36:17;49.55;48.54;50.68;;
17594;Laerm;8916;47.086;15.920;2023-02-01T03:38:55;49.55;48.45;50.57;;
17594;Laerm;8916;47.086;15.920;2023-02-01T03:41:34;49.55;48.52;50.56;;
17594;Laerm;8916;47.086;15.920;2023-02-01T03:44:12;49.56;48.40;50.63;;
17594;Laerm;8916;47.086;15.920;2023-02-01T03:46:47;49.56;48.58;50.65;;
17594;Laerm;8916;47.086;15.920;2023-02-01T03:49:23;49.56;48.37;50.75;;
17594;Laerm;8916;47.086;15.920;2023-02-01T03:51:55;49.55;48.48;50.66;;
17594;Laerm;8916;47.086;15.920;2023-02-01T03:54:27;49.56;48.39;50.74;;
17594;Laerm;8916;47.086;15.920;2023-02-01T03:57:02;49.57;48.46;50.56;;
17594;Laerm;8916;47.086;15.920;2023-02-01T03:59:31;49.57;48.40;50.58;;
17594;Laerm;8916;47.086;15.920;2023-02-01T04:02:01;49.57;48.61;50.83;;
17594;Laerm;8916;47.086;15.920;2023-02-01T04:04:30;49.56;48.36;50.64;;
17594;Laerm;8916;47.086;15.920;2023-02-01T04:07:00;49.56;48.51;50.58;;
17594;Laerm;8916;47.086;15.920;2023-02-01T04:09:29;49.56;48.45;50.74;;
17594;Laerm;8916;47.086;15.920;2023-02-01T04:12:00;49.56;48.55;50.82;;
17594;Laerm;8916;47.086;15.920;2023-02-01T04:14:30;49.57;48.42;50.92;;
17594;Laerm;8916;47.086;15.920;2023-02-01T04:16:59;49.57;48.28;50.66;;
17594;Laerm;8916;47.086;15.920;2023-02-01T04:19:28;49.58;48.55;50.77;;
17594;Laerm;8916;47.086;15.920;2023-02-01T04:21:57;49.57;48.58;50.62;;
17594;Laerm;8916;47.086;15.920;2023-02-01T04:24:26;49.58;48.54;50.61;;
17594;Laerm;8916;47.086;15.920;2023-02-01T04:26:55;49.57;48.57;50.79;;
17594;Laerm;8916;47.086;15.920;2023-02-01T04:29:25;49.57;48.55;50.70;;
17594;Laerm;8916;47.086;15.920;2023-02-01T04:31:55;49.58;48.43;50.96;;
17594;Laerm;8916;47.086;15.920;2023-02-01T04:34:24;49.57;48.55;50.67;;
17594;Laerm;8916;47.086;15.920;2023-02-01T04:36:53;49.57;48.26;50.57;;
17594;Laerm;8916;47.086;15.920;2023-02-01T04:39:23;49.58;48.40;50.72;;
17594;Laerm;8916;47.086;15.920;2023-02-01T04:41:52;49.58;48.31;50.68;;
17594;Laerm;8916;47.086;15.920;2023-02-01T04:44:21;49.58;48.51;50.67;;
17594;Laerm;8916;47.086;15.920;2023-02-01T04:46:52;49.57;48.60;50.60;;
17594;Laerm;8916;47.086;15.920;2023-02-01T04:49:21;49.58;48.36;50.69;;
17594;Laerm;8916;47.086;15.920;2023-02-01T04:51:50;49.58;48.37;50.62;;
17594;Laerm;8916;47.086;15.920;2023-02-01T04:54:19;49.57;48.61;50.74;;
17594;Laerm;8916;47.086;15.920;2023-02-01T04:56:48;49.58;48.49;50.61;;
17594;Laerm;8916;47.086;15.920;2023-02-01T04:59:17;49.58;48.57;50.63;;
17594;Laerm;8916;47.086;15.920;2023-02-01T05:01:47;49.57;48.45;50.75;;
17594;Laerm;8916;47.086;15.920;2023-02-01T05:04:17;49.57;48.45;50.74;;
17594;Laerm;8916;47.086;15.920;2023-02-01T05:06:46;49.57;48.36;50.84;;
17594;Laerm;8916;47.086;15.920;2023-02-01T05:09:15;49.57;48.54;50.77;;
17594;Laerm;8916;47.086;15.920;2023-02-01T05:11:44;49.57;48.51;50.59;;
17594;Laerm;8916;47.086;15.920;2023-02-01T05:14:31;49.58;48.67;50.58;;
17594;Laerm;8916;47.086;15.920;2023-02-01T05:17:00;49.58;48.48;50.71;;
17594;Laerm;8916;47.086;15.920;2023-02-01T05:19:31;49.58;48.57;50.75;;
17594;Laerm;8916;47.086;15.920;2023-02-01T05:22:00;49.57;48.39;50.62;;
17594;Laerm;8916;47.086;15.920;2023-02-01T05:24:29;49.58;48.48;51.07;;
17594;Laerm;8916;47.086;15.920;2023-02-01T05:26:58;49.58;48.57;50.56;;
17594;Laerm;8916;47.086;15.920;2023-02-01T05:29:27;49.59;48.34;50.97;;
17594;Laerm;8916;47.086;15.920;2023-02-01T05:31:56;49.58;48.28;50.65;;
17594;Laerm;8916;47.086;15.920;2023-02-01T05:34:39;49.58;48.29;50.64;;
17594;Laerm;8916;47.086;15.920;2023-02-01T05:37:09;49.58;48.48;50.68;;
17594;Laerm;8916;47.086;15.920;2023-02-01T05:39:38;49.58;48.32;50.71;;
17594;Laerm;8916;47.086;15.920;2023-02-01T05:42:07;49.59;48.49;50.78;;
17594;Laerm;8916;47.086;15.920;2023-02-01T05:44:36;49.58;48.48;50.56;;
17594;Laerm;8916;47.086;15.920;2023-02-01T05:47:05;49.59;48.58;50.75;;
17594;Laerm;8916;47.086;15.920;2023-02-01T05:49:34;49.59;48.58;50.56;;
17594;Laerm;8916;47.086;15.920;2023-02-01T05:52:04;49.59;48.46;50.66;;
17594;Laerm;8916;47.086;15.920;2023-02-01T05:54:34;49.58;48.53;50.68;;
17594;Laerm;8916;47.086;15.920;2023-02-01T05:57:03;49.59;48.45;50.81;;
17594;Laerm;8916;47.086;15.920;2023-02-01T05:59:32;49.58;48.23;50.56;;
17594;Laerm;8916;47.086;15.920;2023-02-01T06:02:01;49.58;48.57;50.62;;
17594;Laerm;8916;47.086;15.920;2023-02-01T06:04:31;49.58;48.51;50.58;;
17594;Laerm;8916;47.086;15.920;2023-02-01T06:07:00;49.58;48.42;50.64;;
17594;Laerm;8916;47.086;15.920;2023-02-01T06:09:30;49.58;48.34;50.69;;
17594;Laerm;8916;47.086;15.920;2023-02-01T06:11:59;49.57;48.34;50.79;;
17594;Laerm;8916;47.086;15.920;2023-02-01T06:14:29;49.58;48.61;50.49;;
17594;Laerm;8916;47.086;15.920;2023-02-01T06:16:58;49.58;48.43;50.65;;
17594;Laerm;8916;47.086;15.920;2023-02-01T06:19:27;49.57;48.42;50.56;;
17594;Laerm;8916;47.086;15.920;2023-02-01T06:21:56;49.58;48.21;50.78;;
17594;Laerm;8916;47.086;15.920;2023-02-01T06:24:25;49.58;48.57;50.73;;
17594;Laerm;8916;47.086;15.920;2023-02-01T06:26:55;49.58;48.45;50.63;;
17594;Laerm;8916;47.086;15.920;2023-02-01T06:29:25;49.58;48.64;50.65;;
17594;Laerm;8916;47.086;15.920;2023-02-01T06:31:54;49.56;48.42;50.74;;
17594;Laerm;8916;47.086;15.920;2023-02-01T06:34:23;49.58;48.49;50.56;;
17594;Laerm;8916;47.086;15.920;2023-02-01T06:36:52;49.58;48.37;50.60;;
17594;Laerm;8916;47.086;15.920;2023-02-01T06:39:22;49.57;48.52;50.61;;
17594;Laerm;8916;47.086;15.920;2023-02-01T06:41:51;49.57;48.45;50.69;;
17594;Laerm;8916;47.086;15.920;2023-02-01T06:44:22;49.56;48.46;50.70;;
17594;Laerm;8916;47.086;15.920;2023-02-01T06:46:51;49.55;48.10;50.51;;
17594;Laerm;8916;47.086;15.920;2023-02-01T06:49:20;49.55;48.42;50.71;;
17594;Laerm;8916;47.086;15.920;2023-02-01T06:51:49;49.54;48.49;50.72;;
17594;Laerm;8916;47.086;15.920;2023-02-01T06:54:18;49.54;48.52;50.59;;
17594;Laerm;8916;47.086;15.920;2023-02-01T06:56:47;49.54;48.18;50.56;;
17594;Laerm;8916;47.086;15.920;2023-02-01T06:59:17;49.50;48.15;50.51;;
17594;Laerm;8916;47.086;15.920;2023-02-01T07:01:47;49.46;48.40;50.58;;
17594;Laerm;8916;47.086;15.920;2023-02-01T07:04:16;49.44;48.42;50.54;;
17594;Laerm;8916;47.086;15.920;2023-02-01T07:06:45;49.43;48.26;50.53;;
17594;Laerm;8916;47.086;15.920;2023-02-01T07:09:14;49.43;48.23;50.42;;
17594;Laerm;8916;47.086;15.920;2023-02-01T07:11:43;49.43;48.37;50.41;;
17594;Laerm;8916;47.086;15.920;2023-02-01T07:14:13;49.43;48.36;50.55;;
17594;Laerm;8916;47.086;15.920;2023-02-01T07:16:42;49.42;48.42;50.76;;
17594;Laerm;8916;47.086;15.920;2023-02-01T07:19:12;49.41;48.28;50.53;;
17594;Laerm;8916;47.086;15.920;2023-02-01T07:21:42;49.39;48.18;50.55;;
17594;Laerm;8916;47.086;15.920;2023-02-01T07:24:11;49.39;48.26;50.68;;
17594;Laerm;8916;47.086;15.920;2023-02-01T07:26:40;49.39;48.21;50.50;;
17594;Laerm;8916;47.086;15.920;2023-02-01T07:29:09;49.38;47.96;50.47;;
17594;Laerm;8916;47.086;15.920;2023-02-01T07:31:38;49.38;48.16;50.40;;
17594;Laerm;8916;47.086;15.920;2023-02-01T07:34:07;49.39;48.25;50.65;;
17594;Laerm;8916;47.086;15.920;2023-02-01T07:36:38;49.40;48.28;50.58;;
17594;Laerm;8916;47.086;15.920;2023-02-01T07:39:07;49.41;48.37;50.53;;
17594;Laerm;8916;47.086;15.920;2023-02-01T07:41:36;49.41;48.10;50.51;;
17594;Laerm;8916;47.086;15.920;2023-02-01T07:44:05;49.39;48.31;50.47;;
17594;Laerm;8916;47.086;15.920;2023-02-01T07:46:34;49.38;48.18;50.48;;
17594;Laerm;8916;47.086;15.920;2023-02-01T07:49:04;49.37;48.25;50.64;;
17594;Laerm;8916;47.086;15.920;2023-02-01T07:51:33;49.33;48.20;50.87;;
17594;Laerm;8916;47.086;15.920;2023-02-01T07:54:03;49.34;48.13;50.75;;
17594;Laerm;8916;47.086;15.920;2023-02-01T07:56:32;49.33;48.23;50.68;;
17594;Laerm;8916;47.086;15.920;2023-02-01T07:59:01;49.33;48.18;50.45;;
17594;Laerm;8916;47.086;15.920;2023-02-01T08:01:30;49.30;48.16;50.34;;
17594;Laerm;8916;47.086;15.920;2023-02-01T08:04:00;49.29;48.23;50.42;;
17594;Laerm;8916;47.086;15.920;2023-02-01T08:06:33;49.27;48.02;50.55;;
17594;Laerm;8916;47.086;15.920;2023-02-01T08:09:05;49.28;48.16;50.42;;
17594;Laerm;8916;47.086;15.920;2023-02-01T08:11:35;49.24;48.16;50.24;;
17594;Laerm;8916;47.086;15.920;2023-02-01T08:14:05;49.24;47.91;50.45;;
17594;Laerm;8916;47.086;15.920;2023-02-01T08:16:35;49.20;48.05;50.44;;
17594;Laerm;8916;47.086;15.920;2023-02-01T08:19:05;49.15;48.15;50.39;;
17594;Laerm;8916;47.086;15.920;2023-02-01T08:21:34;49.13;47.91;50.37;;
17594;Laerm;8916;47.086;15.920;2023-02-01T08:24:08;49.11;48.00;50.22;;
17594;Laerm;8916;47.086;15.920;2023-02-01T08:26:38;49.07;48.05;50.14;;
17594;Laerm;8916;47.086;15.920;2023-02-01T08:29:09;49.08;47.93;50.53;;
17594;Laerm;8916;47.086;15.920;2023-02-01T08:31:40;49.08;47.81;50.19;;
17594;Laerm;8916;47.086;15.920;2023-02-01T08:34:11;49.09;48.00;50.12;;
17594;Laerm;8916;47.086;15.920;2023-02-01T08:36:40;49.09;47.84;50.17;;
17594;Laerm;8916;47.086;15.920;2023-02-01T08:39:11;49.08;47.90;50.45;;
17594;Laerm;8916;47.086;15.920;2023-02-01T08:41:40;49.06;47.90;50.26;;
17594;Laerm;8916;47.086;15.920;2023-02-01T08:44:30;49.04;47.86;50.13;;
17594;Laerm;8916;47.086;15.920;2023-02-01T08:46:59;49.03;47.91;50.23;;
17594;Laerm;8916;47.086;15.920;2023-02-01T08:49:28;49.03;47.86;50.41;;
17594;Laerm;8916;47.086;15.920;2023-02-01T08:51:57;49.01;47.96;50.13;;
17594;Laerm;8916;47.086;15.920;2023-02-01T08:54:35;49.01;47.70;50.18;;
17594;Laerm;8916;47.086;15.920;2023-02-01T08:57:04;48.99;47.84;50.30;;
17594;Laerm;8916;47.086;15.920;2023-02-01T08:59:33;48.98;47.84;50.05;;
17594;Laerm;8916;47.086;15.920;2023-02-01T09:02:02;48.98;47.84;50.16;;
17594;Laerm;8916;47.086;15.920;2023-02-01T09:04:31;48.95;47.70;50.09;;
17594;Laerm;8916;47.086;15.920;2023-02-01T09:07:00;48.95;47.79;50.09;;
17594;Laerm;8916;47.086;15.920;2023-02-01T09:09:29;48.96;47.91;50.12;;
17594;Laerm;8916;47.086;15.920;2023-02-01T09:12:00;48.94;47.79;50.04;;
17594;Laerm;8916;47.086;15.920;2023-02-01T09:14:29;48.94;47.79;50.15;;
17594;Laerm;8916;47.086;15.920;2023-02-01T09:16:58;48.95;47.86;49.98;;
17594;Laerm;8916;47.086;15.920;2023-02-01T09:19:27;48.96;47.91;49.98;;
17594;Laerm;8916;47.086;15.920;2023-02-01T09:21:56;48.97;47.95;50.11;;
17594;Laerm;8916;47.086;15.920;2023-02-01T09:24:26;48.97;47.76;50.21;;
17594;Laerm;8916;47.086;15.920;2023-02-01T09:26:55;48.99;47.79;50.13;;
17594;Laerm;8916;47.086;15.920;2023-02-01T09:29:26;49.01;47.93;50.05;;
17594;Laerm;8916;47.086;15.920;2023-02-01T09:31:55;49.00;47.79;50.32;;
17594;Laerm;8916;47.086;15.920;2023-02-01T09:34:31;48.99;47.95;50.56;;
17594;Laerm;8916;47.086;15.920;2023-02-01T09:37:00;48.95;47.76;50.15;;
17594;Laerm;8916;47.086;15.920;2023-02-01T09:39:29;48.93;47.68;50.05;;
17594;Laerm;8916;47.086;15.920;2023-02-01T09:42:15;48.93;47.88;49.93;;
17594;Laerm;8916;47.086;15.920;2023-02-01T09:45:06;48.91;47.72;50.22;;
17594;Laerm;8916;47.086;15.920;2023-02-01T09:47:46;48.92;47.95;50.20;;
17594;Laerm;8916;47.086;15.920;2023-02-01T09:50:20;48.92;47.93;50.23;;
17594;Laerm;8916;47.086;15.920;2023-02-01T09:52:57;48.92;47.88;49.95;;
17594;Laerm;8916;47.086;15.920;2023-02-01T09:55:40;48.92;47.95;50.15;;
17594;Laerm;8916;47.086;15.920;2023-02-01T09:58:16;48.95;47.74;50.14;;
17594;Laerm;8916;47.086;15.920;2023-02-01T10:00:53;48.98;47.86;50.16;;
17594;Laerm;8916;47.086;15.920;2023-02-01T10:03:24;48.97;47.86;50.11;;
17594;Laerm;8916;47.086;15.920;2023-02-01T10:06:13;48.93;47.74;50.24;;
17594;Laerm;8916;47.086;15.920;2023-02-01T10:09:21;48.93;47.81;50.19;;
17594;Laerm;8916;47.086;15.920;2023-02-01T10:12:13;48.98;47.84;50.14;;
17594;Laerm;8916;47.086;15.920;2023-02-01T10:14:59;48.95;47.72;50.25;;
17594;Laerm;8916;47.086;15.920;2023-02-01T10:17:46;48.94;47.93;50.17;;
17594;Laerm;8916;47.086;15.920;2023-02-01T10:20:23;48.99;47.88;50.23;;
17594;Laerm;8916;47.086;15.920;2023-02-01T10:23:07;49.02;48.03;50.18;;
17594;Laerm;8916;47.086;15.920;2023-02-01T10:26:08;49.02;47.93;50.36;;
17594;Laerm;8916;47.086;15.920;2023-02-01T10:28:44;48.99;47.79;50.08;;
17594;Laerm;8916;47.086;15.920;2023-02-01T10:31:16;48.97;47.76;50.55;;
17594;Laerm;8916;47.086;15.920;2023-02-01T10:33:49;49.02;47.76;50.18;;
17594;Laerm;8916;47.086;15.920;2023-02-01T10:36:23;49.05;47.88;50.15;;
17594;Laerm;8916;47.086;15.920;2023-02-01T10:38:57;49.05;47.93;50.42;;
17594;Laerm;8916;47.086;15.920;2023-02-01T10:41:32;49.05;47.79;50.56;;
17594;Laerm;8916;47.086;15.920;2023-02-01T10:44:04;49.04;47.88;50.06;;
17594;Laerm;8916;47.086;15.920;2023-02-01T10:46:36;49.06;47.88;50.11;;
17594;Laerm;8916;47.086;15.920;2023-02-01T10:49:13;49.07;47.99;50.09;;
17594;Laerm;8916;47.086;15.920;2023-02-01T10:51:49;49.08;48.00;50.35;;
17594;Laerm;8916;47.086;15.920;2023-02-01T10:54:23;49.07;47.85;50.39;;
17594;Laerm;8916;47.086;15.920;2023-02-01T10:57:00;49.08;47.91;50.58;;
17594;Laerm;8916;47.086;15.920;2023-02-01T10:59:29;49.07;47.88;50.22;;
17594;Laerm;8916;47.086;15.920;2023-02-01T11:02:02;49.06;47.83;50.25;;
17594;Laerm;8916;47.086;15.920;2023-02-01T11:04:36;49.05;47.79;50.29;;
17594;Laerm;8916;47.086;15.920;2023-02-01T11:07:12;49.03;47.93;50.37;;
17594;Laerm;8916;47.086;15.920;2023-02-01T11:09:42;49.04;47.77;50.12;;
17594;Laerm;8916;47.086;15.920;2023-02-01T11:12:29;49.03;47.90;50.21;;
17594;Laerm;8916;47.086;15.920;2023-02-01T11:15:12;49.03;47.84;50.11;;
17594;Laerm;8916;47.086;15.920;2023-02-01T11:17:47;49.03;47.88;50.19;;
17594;Laerm;8916;47.086;15.920;2023-02-01T11:20:38;49.03;47.72;50.26;;
17594;Laerm;8916;47.086;15.920;2023-02-01T11:23:14;49.03;47.96;50.32;;
17594;Laerm;8916;47.086;15.920;2023-02-01T11:25:53;49.03;47.90;50.07;;
17594;Laerm;8916;47.086;15.920;2023-02-01T11:28:25;49.02;47.88;50.42;;
17594;Laerm;8916;47.086;15.920;2023-02-01T11:30:59;49.01;47.68;50.26;;
17594;Laerm;8916;47.086;15.920;2023-02-01T11:33:31;49.00;47.84;50.13;;
17594;Laerm;8916;47.086;15.920;2023-02-01T11:36:09;49.00;47.98;50.19;;
17594;Laerm;8916;47.086;15.920;2023-02-01T11:38:53;48.99;47.61;49.96;;
17594;Laerm;8916;47.086;15.920;2023-02-01T11:41:25;48.99;47.96;50.06;;
17594;Laerm;8916;47.086;15.920;2023-02-01T11:43:56;48.97;47.86;50.10;;
17594;Laerm;8916;47.086;15.920;2023-02-01T11:46:30;48.98;48.02;50.12;;
17594;Laerm;8916;47.086;15.920;2023-02-01T11:49:20;48.98;47.81;50.23;;
17594;Laerm;8916;47.086;15.920;2023-02-01T11:52:12;48.99;47.79;50.39;;
17594;Laerm;8916;47.086;15.920;2023-02-01T11:55:02;48.99;47.81;50.27;;
17594;Laerm;8916;47.086;15.920;2023-02-01T11:57:54;48.94;47.88;50.04;;
17594;Laerm;8916;47.086;15.920;2023-02-01T12:00:40;48.91;47.76;50.12;;
17594;Laerm;8916;47.086;15.920;2023-02-01T12:03:52;48.94;47.68;50.13;;
17594;Laerm;8916;47.086;15.920;2023-02-01T12:06:34;48.96;47.70;50.18;;
17594;Laerm;8916;47.086;15.920;2023-02-01T12:09:26;48.98;47.91;50.24;;
17594;Laerm;8916;47.086;15.920;2023-02-01T12:12:07;48.97;47.61;50.07;;
17594;Laerm;8916;47.086;15.920;2023-02-01T12:14:56;48.97;47.86;50.05;;
17594;Laerm;8916;47.086;15.920;2023-02-01T12:17:44;48.97;47.86;50.41;;
17594;Laerm;8916;47.086;15.920;2023-02-01T12:20:30;48.96;47.86;50.46;;
17594;Laerm;8916;47.086;15.920;2023-02-01T12:23:18;48.97;47.91;50.25;;
17594;Laerm;8916;47.086;15.920;2023-02-01T12:26:08;48.95;47.77;50.21;;
17594;Laerm;8916;47.086;15.920;2023-02-01T12:29:02;48.97;47.93;50.02;;
17594;Laerm;8916;47.086;15.920;2023-02-01T12:31:48;48.96;47.84;50.45;;
17594;Laerm;8916;47.086;15.920;2023-02-01T12:37:35;48.95;48.03;50.45;;
17594;Laerm;8916;47.086;15.920;2023-02-01T12:40:26;48.95;47.83;50.10;;
17594;Laerm;8916;47.086;15.920;2023-02-01T12:43:03;48.94;47.74;50.08;;
17594;Laerm;8916;47.086;15.920;2023-02-01T12:45:39;48.94;47.90;50.19;;
17594;Laerm;8916;47.086;15.920;2023-02-01T12:48:25;48.96;47.90;50.32;;
17594;Laerm;8916;47.086;15.920;2023-02-01T12:50:57;48.97;47.86;50.17;;
17594;Laerm;8916;47.086;15.920;2023-02-01T12:53:43;48.95;47.84;50.15;;
17594;Laerm;8916;47.086;15.920;2023-02-01T12:56:23;48.97;47.72;50.20;;
17594;Laerm;8916;47.086;15.920;2023-02-01T12:58:59;48.96;47.76;50.14;;
17594;Laerm;8916;47.086;15.920;2023-02-01T13:01:35;48.97;47.86;50.33;;
17594;Laerm;8916;47.086;15.920;2023-02-01T13:04:14;48.98;47.96;50.25;;
17594;Laerm;8916;47.086;15.920;2023-02-01T13:06:50;48.96;47.95;50.10;;
17594;Laerm;8916;47.086;15.920;2023-02-01T13:09:26;48.96;47.83;50.16;;
17594;Laerm;8916;47.086;15.920;2023-02-01T13:12:06;48.95;47.88;50.01;;
17594;Laerm;8916;47.086;15.920;2023-02-01T13:14:46;48.95;47.78;50.16;;
17594;Laerm;8916;47.086;15.920;2023-02-01T13:17:22;48.96;47.95;50.11;;
17594;Laerm;8916;47.086;15.920;2023-02-01T13:19:55;48.96;47.84;50.29;;
17594;Laerm;8916;47.086;15.920;2023-02-01T13:22:30;48.97;47.84;50.31;;
17594;Laerm;8916;47.086;15.920;2023-02-01T13:25:04;48.95;47.77;50.38;;
17594;Laerm;8916;47.086;15.920;2023-02-01T13:27:34;48.97;47.91;50.05;;
17594;Laerm;8916;47.086;15.920;2023-02-01T13:30:25;48.96;47.79;50.05;;
17594;Laerm;8916;47.086;15.920;2023-02-01T13:33:22;48.95;47.95;50.10;;
17594;Laerm;8916;47.086;15.920;2023-02-01T13:36:41;48.96;47.68;50.19;;
17594;Laerm;8916;47.086;15.920;2023-02-01T13:40:05;48.95;47.84;50.17;;
17594;Laerm;8916;47.086;15.920;2023-02-01T13:42:47;48.97;47.68;50.04;;
17594;Laerm;8916;47.086;15.920;2023-02-01T13:45:22;48.97;47.93;50.17;;
17594;Laerm;8916;47.086;15.920;2023-02-01T13:47:56;48.97;47.81;50.33;;
17594;Laerm;8916;47.086;15.920;2023-02-01T13:50:30;48.99;47.83;50.13;;
17594;Laerm;8916;47.086;15.920;2023-02-01T13:53:11;48.98;47.91;50.20;;
17594;Laerm;8916;47.086;15.920;2023-02-01T13:55:45;48.97;47.79;50.20;;
17594;Laerm;8916;47.086;15.920;2023-02-01T13:58:19;48.96;47.84;50.19;;
17594;Laerm;8916;47.086;15.920;2023-02-01T14:00:51;48.92;47.76;50.15;;
17594;Laerm;8916;47.086;15.920;2023-02-01T14:03:45;48.95;47.86;50.06;;
17594;Laerm;8916;47.086;15.920;2023-02-01T14:06:43;48.96;47.84;50.29;;
17594;Laerm;8916;47.086;15.920;2023-02-01T14:09:21;48.98;47.81;50.27;;
17594;Laerm;8916;47.086;15.920;2023-02-01T14:12:46;48.98;47.50;50.10;;
17594;Laerm;8916;47.086;15.920;2023-02-01T14:15:24;48.98;47.59;50.23;;
17594;Laerm;8916;47.086;15.920;2023-02-01T14:17:56;48.99;47.93;50.09;;
17594;Laerm;8916;47.086;15.920;2023-02-01T14:20:44;48.97;47.86;50.31;;
17594;Laerm;8916;47.086;15.920;2023-02-01T14:23:28;48.92;47.77;50.24;;
17594;Laerm;8916;47.086;15.920;2023-02-01T14:26:19;48.89;47.83;50.16;;
17594;Laerm;8916;47.086;15.920;2023-02-01T14:29:00;48.92;47.65;50.22;;
17594;Laerm;8916;47.086;15.920;2023-02-01T14:31:58;48.93;47.81;50.16;;
17594;Laerm;8916;47.086;15.920;2023-02-01T14:34:48;48.93;47.88;50.22;;
17594;Laerm;8916;47.086;15.920;2023-02-01T14:37:27;48.91;47.90;50.20;;